Time;durP1;ratioP1;P1;durP2;ratioP2;P2;SDS_P1;SDS_P2;PMS_P1;PMS_P2;Temp;Humidity;BMP_temperature;BMP_pressure;BME280_temperature;BME280_humidity;BME280_pressure;Samples;Min_cycle;Max_cycle;Signal;HPM_P1;HPM_P2
2023/01/30 00:01:32;;;;;;;9.80;7.70;;;3.80;35.90;;;;;;5012785;28;20278;-49
2023/01/30 00:03:58;;;;;;;12.02;9.07;;;3.80;35.40;;;;;;5012913;28;20167;-49
2023/01/30 00:06:24;;;;;;;11.43;7.70;;;3.90;35.60;;;;;;5012708;28;20200;-49
2023/01/30 00:08:51;;;;;;;16.23;10.88;;;4.00;35.70;;;;;;5012908;28;20166;-50
2023/01/30 00:11:19;;;;;;;14.77;9.25;;;4.20;35.20;;;;;;5012201;28;20233;-49
2023/01/30 00:13:46;;;;;;;12.00;8.85;;;4.20;35.10;;;;;;5012796;28;20216;-49
2023/01/30 00:16:12;;;;;;;10.95;7.85;;;4.30;35.30;;;;;;5012483;28;20213;-49
2023/01/30 00:18:39;;;;;;;13.43;8.73;;;4.30;34.50;;;;;;5012742;28;20654;-49
2023/01/30 00:21:06;;;;;;;14.77;8.70;;;4.20;34.40;;;;;;5012471;28;20247;-49
2023/01/30 00:23:34;;;;;;;9.57;7.45;;;4.20;34.90;;;;;;5012689;28;20515;-49
2023/01/30 00:26:00;;;;;;;12.52;7.88;;;4.10;34.80;;;;;;5012489;28;20162;-49
2023/01/30 00:28:25;;;;;;;16.40;7.83;;;4.00;35.20;;;;;;5012563;28;20174;-49
2023/01/30 00:30:53;;;;;;;12.33;7.70;;;4.00;35.10;;;;;;5012419;28;20688;-49
2023/01/30 00:33:20;;;;;;;9.50;7.35;;;3.90;35.20;;;;;;5012519;28;20414;-50
2023/01/30 00:35:48;;;;;;;14.05;7.55;;;4.00;35.60;;;;;;5012164;28;20225;-50
2023/01/30 00:38:14;;;;;;;11.93;9.18;;;4.10;35.50;;;;;;5012421;28;20849;-49
2023/01/30 00:40:41;;;;;;;12.52;8.15;;;4.20;34.70;;;;;;5012203;28;20214;-49
2023/01/30 00:48:38;;;;;;;10.07;7.65;;;4.10;34.90;;;;;;5012377;28;20304;-49
2023/01/30 00:51:04;;;;;;;12.70;8.20;;;4.00;35.10;;;;;;5012285;28;20285;-49
2023/01/30 00:53:30;;;;;;;13.35;8.68;;;4.10;35.00;;;;;;5012253;28;20180;-49
2023/01/30 00:55:56;;;;;;;11.70;8.20;;;4.00;34.90;;;;;;5012095;28;20179;-49
2023/01/30 00:58:22;;;;;;;11.50;9.43;;;4.10;35.20;;;;;;5012277;28;20178;-49
2023/01/30 01:00:48;;;;;;;12.43;8.85;;;4.20;35.00;;;;;;5012090;28;20852;-50
2023/01/30 01:03:14;;;;;;;11.98;8.15;;;4.30;35.10;;;;;;5012223;28;20257;-49
2023/01/30 01:05:41;;;;;;;13.17;9.40;;;4.50;35.30;;;;;;5010739;28;20597;-50
2023/01/30 01:08:06;;;;;;;11.40;9.30;;;4.50;35.10;;;;;;5012095;28;20413;-49
2023/01/30 01:10:32;;;;;;;12.90;7.40;;;4.60;35.00;;;;;;5012089;28;20198;-49
2023/01/30 01:12:58;;;;;;;13.70;8.07;;;4.70;35.10;;;;;;5012185;28;20202;-48
2023/01/30 01:15:25;;;;;;;11.70;8.10;;;4.70;35.00;;;;;;5012057;28;20442;-49
2023/01/30 01:17:52;;;;;;;13.68;8.50;;;4.80;35.10;;;;;;5012051;28;20254;-49
2023/01/30 01:20:19;;;;;;;12.75;8.77;;;4.80;34.80;;;;;;5011917;28;20194;-49
2023/01/30 01:22:48;;;;;;;11.63;8.20;;;4.80;34.80;;;;;;5012551;28;20301;-50
2023/01/30 01:25:14;;;;;;;11.40;8.13;;;4.80;34.90;;;;;;5015701;28;20173;-49
2023/01/30 01:27:40;;;;;;;10.13;7.90;;;4.80;35.00;;;;;;5015947;28;20238;-49
2023/01/30 01:30:06;;;;;;;12.13;9.00;;;4.90;35.00;;;;;;5015761;28;20433;-49
2023/01/30 01:32:33;;;;;;;13.38;8.18;;;4.80;34.60;;;;;;5015597;28;20186;-49
2023/01/30 01:34:58;;;;;;;9.55;6.90;;;4.80;35.00;;;;;;5015581;28;20178;-49
2023/01/30 01:37:24;;;;;;;12.43;8.57;;;4.80;34.90;;;;;;5015662;28;20186;-49
2023/01/30 01:42:36;;;;;;;12.20;8.43;;;4.80;35.60;;;;;;5015667;28;20508;-49
2023/01/30 01:45:08;;;;;;;11.57;8.50;;;4.80;35.40;;;;;;5015326;28;20174;-49
2023/01/30 01:47:34;;;;;;;11.77;8.00;;;4.90;35.40;;;;;;5015702;28;20224;-49
2023/01/30 01:50:01;;;;;;;12.32;9.10;;;4.80;35.30;;;;;;5015378;28;20205;-49
2023/01/30 01:52:28;;;;;;;10.35;7.13;;;4.90;35.70;;;;;;5015504;28;20174;-49
2023/01/30 01:54:58;;;;;;;13.02;8.80;;;4.80;35.60;;;;;;5015165;28;20300;-49
2023/01/30 01:57:35;;;;;;;13.18;8.60;;;4.90;35.70;;;;;;5015695;28;20648;-49
2023/01/30 02:00:11;;;;;;;10.65;8.43;;;4.90;35.90;;;;;;5015535;28;20199;-48
2023/01/30 02:02:41;;;;;;;10.02;7.05;;;5.00;36.00;;;;;;5015448;28;20765;-49
2023/01/30 02:05:10;;;;;;;12.23;8.02;;;4.90;36.60;;;;;;5015035;28;20253;-49
2023/01/30 02:07:42;;;;;;;10.05;7.82;;;4.90;36.10;;;;;;5015272;28;20189;-49
2023/01/30 02:10:14;;;;;;;12.63;8.93;;;5.00;36.00;;;;;;5015103;28;20285;-50
2023/01/30 02:12:40;;;;;;;13.07;7.55;;;5.00;36.00;;;;;;5015045;28;20226;-49
2023/01/30 02:15:07;;;;;;;12.45;7.47;;;5.00;36.10;;;;;;5014725;28;20189;-49
2023/01/30 02:17:32;;;;;;;13.80;7.57;;;5.00;36.20;;;;;;5014955;28;20186;-49
2023/01/30 02:20:40;;;;;;;17.17;8.70;;;5.00;36.40;;;;;;5014769;28;20178;-48
2023/01/30 02:23:21;;;;;;;11.32;7.78;;;5.00;36.50;;;;;;5006582;28;20586;-49
2023/01/30 02:26:10;;;;;;;12.00;7.78;;;5.00;36.90;;;;;;5015156;28;20154;-49
2023/01/30 02:28:46;;;;;;;11.88;7.88;;;5.00;37.20;;;;;;5013824;28;20700;-49
2023/01/30 02:31:47;;;;;;;11.45;7.57;;;4.90;37.80;;;;;;5014570;28;20194;-50
2023/01/30 02:34:18;;;;;;;11.05;8.07;;;4.80;37.80;;;;;;5014080;28;20278;-49
2023/01/30 02:36:53;;;;;;;10.93;7.00;;;4.90;37.90;;;;;;5014469;28;20171;-50
2023/01/30 02:39:31;;;;;;;13.60;9.32;;;4.80;38.20;;;;;;5014518;28;20254;-49
2023/01/30 02:42:16;;;;;;;13.43;8.82;;;4.90;38.80;;;;;;5014202;28;20206;-50
2023/01/30 02:45:04;;;;;;;11.38;8.10;;;4.90;39.00;;;;;;5014201;28;20608;-50
2023/01/30 02:47:37;;;;;;;14.00;8.95;;;4.80;39.00;;;;;;5014359;28;20191;-49
2023/01/30 02:50:14;;;;;;;10.25;7.40;;;4.90;38.90;;;;;;5013013;28;20253;-50
2023/01/30 02:52:41;;;;;;;12.23;7.38;;;5.00;39.60;;;;;;5014366;28;20170;-49
2023/01/30 02:55:22;;;;;;;13.00;9.38;;;5.00;38.80;;;;;;5013949;28;20198;-49
2023/01/30 02:57:47;;;;;;;11.05;7.88;;;5.10;38.90;;;;;;5014218;28;20182;-49
2023/01/30 03:00:19;;;;;;;13.30;9.07;;;5.10;38.80;;;;;;5013916;28;20682;-49
2023/01/30 03:03:17;;;;;;;10.35;7.50;;;5.20;38.60;;;;;;5014018;28;20190;-49
2023/01/30 03:05:57;;;;;;;12.50;9.00;;;5.20;38.70;;;;;;5013792;28;20913;-49
2023/01/30 03:09:00;;;;;;;11.60;8.73;;;5.30;38.90;;;;;;5013920;28;20178;-49
2023/01/30 03:11:31;;;;;;;10.00;7.43;;;5.30;38.80;;;;;;4995465;28;20204;-49
2023/01/30 03:13:57;;;;;;;13.18;9.20;;;5.30;39.00;;;;;;5013940;28;20820;-49
2023/01/30 03:16:40;;;;;;;12.20;7.40;;;5.30;39.10;;;;;;5013691;28;20214;-49
2023/01/30 03:19:11;;;;;;;11.73;7.55;;;5.40;39.00;;;;;;5013815;28;20163;-49
2023/01/30 03:21:44;;;;;;;9.60;6.55;;;5.40;39.30;;;;;;5013496;28;20206;-49
2023/01/30 03:24:10;;;;;;;9.63;7.07;;;5.40;39.00;;;;;;5013747;28;20189;-49
2023/01/30 03:26:49;;;;;;;11.07;7.97;;;5.40;39.30;;;;;;5013514;28;20177;-49
2023/01/30 03:29:15;;;;;;;8.02;5.85;;;5.50;39.30;;;;;;5013622;28;20165;-49
2023/01/30 03:31:40;;;;;;;8.10;6.17;;;5.50;39.10;;;;;;5013432;28;20274;-49
2023/01/30 03:34:06;;;;;;;9.50;7.23;;;5.60;39.10;;;;;;5013485;28;20905;-49
2023/01/30 03:36:32;;;;;;;8.67;6.70;;;5.60;39.30;;;;;;5013237;28;20534;-49
2023/01/30 03:38:58;;;;;;;12.13;7.27;;;5.50;39.70;;;;;;5013348;28;20605;-50
2023/01/30 03:41:23;;;;;;;12.60;7.90;;;5.50;39.90;;;;;;5013174;28;20210;-50
2023/01/30 03:43:49;;;;;;;8.37;6.37;;;5.50;39.70;;;;;;5013430;28;20698;-50
2023/01/30 03:46:15;;;;;;;11.23;6.00;;;5.60;39.40;;;;;;5012062;28;20692;-50
2023/01/30 03:48:41;;;;;;;8.23;6.47;;;5.70;39.20;;;;;;5013208;28;20410;-49
2023/01/30 03:51:06;;;;;;;10.47;7.20;;;5.80;39.20;;;;;;5013150;28;20191;-49
2023/01/30 03:53:32;;;;;;;8.97;6.63;;;5.80;39.20;;;;;;5013185;28;20680;-49
2023/01/30 03:55:58;;;;;;;10.37;6.33;;;5.80;39.40;;;;;;5012948;28;20182;-49
2023/01/30 03:58:24;;;;;;;8.23;6.33;;;5.80;39.20;;;;;;5013149;28;20642;-49
2023/01/30 04:00:49;;;;;;;8.23;6.40;;;5.80;39.40;;;;;;5013148;28;20241;-49
2023/01/30 04:03:15;;;;;;;9.17;6.40;;;5.80;39.30;;;;;;5012890;28;20641;-49
2023/01/30 04:05:43;;;;;;;7.93;6.10;;;5.90;39.40;;;;;;5012786;28;20171;-49
2023/01/30 04:08:09;;;;;;;14.02;8.18;;;5.90;39.50;;;;;;5012925;28;20631;-49
2023/01/30 04:10:35;;;;;;;9.52;8.05;;;5.90;39.50;;;;;;5012898;28;20209;-49
2023/01/30 04:13:01;;;;;;;11.50;8.47;;;6.00;39.40;;;;;;5012878;28;20174;-49
2023/01/30 04:15:26;;;;;;;10.27;6.80;;;5.90;39.30;;;;;;5012450;28;20665;-49
2023/01/30 04:17:52;;;;;;;9.77;6.97;;;5.90;39.90;;;;;;5012735;28;20245;-49
2023/01/30 04:20:19;;;;;;;9.63;6.20;;;5.90;39.60;;;;;;5012584;28;20336;-49
2023/01/30 04:22:45;;;;;;;12.15;7.15;;;5.90;39.50;;;;;;5012670;28;20181;-49
2023/01/30 04:25:10;;;;;;;12.73;8.00;;;6.00;39.40;;;;;;5012374;28;20171;-49
2023/01/30 04:27:36;;;;;;;9.63;6.67;;;6.00;39.10;;;;;;5012597;28;20455;-49
2023/01/30 04:30:03;;;;;;;8.80;6.20;;;6.00;39.10;;;;;;5012479;28;20186;-49
2023/01/30 04:32:29;;;;;;;9.65;6.95;;;6.10;39.20;;;;;;5012718;28;20187;-50
2023/01/30 04:34:54;;;;;;;11.83;7.43;;;6.10;39.10;;;;;;5012258;28;20167;-49
2023/01/30 04:37:20;;;;;;;11.83;6.80;;;6.10;39.10;;;;;;5012567;28;20420;-50
2023/01/30 04:39:46;;;;;;;11.77;6.87;;;6.10;39.00;;;;;;5012297;28;20209;-50
2023/01/30 04:42:12;;;;;;;10.23;7.13;;;6.10;39.00;;;;;;5012333;28;20449;-49
2023/01/30 04:44:37;;;;;;;10.47;6.60;;;6.10;39.50;;;;;;5012088;28;20654;-50
2023/01/30 04:47:03;;;;;;;10.13;6.70;;;6.00;39.70;;;;;;5012301;28;20245;-49
2023/01/30 04:49:29;;;;;;;11.43;7.40;;;6.10;39.70;;;;;;5012319;28;20208;-49
2023/01/30 04:51:55;;;;;;;10.20;6.97;;;6.10;39.70;;;;;;5012221;28;20202;-50
2023/01/30 04:54:20;;;;;;;13.30;8.27;;;6.20;40.20;;;;;;5011106;28;20181;-49
2023/01/30 04:56:46;;;;;;;8.83;7.00;;;6.20;39.50;;;;;;5012502;28;20174;-49
2023/01/30 04:59:12;;;;;;;9.30;6.80;;;6.20;39.60;;;;;;5015330;28;20232;-49
2023/01/30 05:01:38;;;;;;;10.07;6.33;;;6.20;39.50;;;;;;5016188;28;20700;-50
2023/01/30 05:04:05;;;;;;;12.50;8.13;;;6.20;39.80;;;;;;5016456;28;20217;-50
2023/01/30 05:06:33;;;;;;;13.27;7.15;;;6.20;39.90;;;;;;5016094;28;20174;-49
2023/01/30 05:09:00;;;;;;;10.75;7.45;;;6.10;40.20;;;;;;5016124;28;20514;-49
2023/01/30 05:11:27;;;;;;;10.98;7.05;;;6.10;40.40;;;;;;5016078;28;20589;-49
2023/01/30 05:13:53;;;;;;;9.35;6.22;;;6.30;40.20;;;;;;5015961;28;20213;-49
2023/01/30 05:16:20;;;;;;;9.60;7.37;;;6.40;39.70;;;;;;5015853;28;20214;-50
2023/01/30 05:18:46;;;;;;;10.48;6.72;;;6.40;39.50;;;;;;5016022;28;20406;-50
2023/01/30 05:21:15;;;;;;;11.90;7.10;;;6.40;39.80;;;;;;5015899;28;20596;-49
2023/01/30 05:23:41;;;;;;;12.75;6.97;;;6.20;40.40;;;;;;5015952;28;20163;-50
2023/01/30 05:26:07;;;;;;;11.75;8.00;;;6.20;40.10;;;;;;5015657;28;20635;-50
2023/01/30 05:28:34;;;;;;;9.55;6.78;;;6.20;40.40;;;;;;5015791;28;20198;-49
2023/01/30 05:31:05;;;;;;;10.10;6.90;;;6.30;40.00;;;;;;5015754;28;20535;-50
2023/01/30 05:33:32;;;;;;;11.38;7.00;;;6.40;40.20;;;;;;5015768;28;20262;-49
2023/01/30 05:35:58;;;;;;;16.10;7.05;;;6.40;39.90;;;;;;5015553;28;20181;-49
2023/01/30 05:38:24;;;;;;;16.10;7.85;;;6.50;39.80;;;;;;5015751;28;20538;-50
2023/01/30 05:41:07;;;;;;;9.95;6.80;;;6.50;39.80;;;;;;5015469;28;20211;-49
2023/01/30 05:43:34;;;;;;;9.68;7.15;;;6.60;39.80;;;;;;5015607;28;20167;-49
2023/01/30 05:46:02;;;;;;;12.00;8.52;;;6.60;39.70;;;;;;5015499;28;20586;-49
2023/01/30 05:48:28;;;;;;;11.10;7.15;;;6.70;39.60;;;;;;5015498;28;20621;-50
2023/01/30 05:50:56;;;;;;;9.80;7.07;;;6.60;39.90;;;;;;5015349;28;20207;-49
2023/01/30 05:53:23;;;;;;;12.02;7.43;;;6.50;40.50;;;;;;5015263;28;20544;-50
2023/01/30 05:56:01;;;;;;;10.70;7.28;;;6.60;40.30;;;;;;5015063;28;20662;-50
2023/01/30 05:58:28;;;;;;;10.85;6.95;;;6.40;40.90;;;;;;5015285;28;20190;-50
2023/01/30 06:00:53;;;;;;;9.63;7.13;;;6.50;41.00;;;;;;5015144;28;20690;-50
2023/01/30 06:03:19;;;;;;;9.67;6.87;;;6.50;40.80;;;;;;5015152;28;20182;-50
2023/01/30 06:05:45;;;;;;;9.70;6.73;;;6.60;40.80;;;;;;5015015;28;20281;-50
2023/01/30 06:08:11;;;;;;;9.60;6.53;;;6.70;40.60;;;;;;5014820;28;20756;-50
2023/01/30 06:10:37;;;;;;;10.20;6.60;;;6.80;40.40;;;;;;5014460;28;20459;-49
2023/01/30 06:13:03;;;;;;;15.70;8.70;;;6.90;40.30;;;;;;5015171;28;20425;-50
2023/01/30 06:15:28;;;;;;;7.77;6.40;;;6.90;40.50;;;;;;5014886;28;20175;-50
2023/01/30 06:17:54;;;;;;;9.30;7.50;;;6.80;40.40;;;;;;5014930;28;20472;-50
2023/01/30 06:20:20;;;;;;;10.27;7.40;;;6.90;40.30;;;;;;5014694;28;20954;-50
2023/01/30 06:22:47;;;;;;;12.82;8.27;;;7.00;40.00;;;;;;5014818;28;20221;-50
2023/01/30 06:25:13;;;;;;;12.48;7.32;;;6.90;40.30;;;;;;5014481;28;20171;-51
2023/01/30 06:27:39;;;;;;;10.10;7.03;;;6.80;40.50;;;;;;5014601;28;20167;-50
2023/01/30 06:30:05;;;;;;;10.63;7.50;;;6.80;40.30;;;;;;5014651;28;20309;-50
2023/01/30 06:32:31;;;;;;;8.45;6.03;;;6.80;40.50;;;;;;5014678;28;20636;-50
2023/01/30 06:34:57;;;;;;;10.90;7.30;;;6.80;40.50;;;;;;5014371;28;20246;-50
2023/01/30 06:37:22;;;;;;;9.70;6.80;;;6.70;41.00;;;;;;5014701;28;20178;-49
2023/01/30 06:39:48;;;;;;;9.37;6.60;;;6.70;41.30;;;;;;5014292;28;20527;-51
2023/01/30 06:42:14;;;;;;;9.37;6.97;;;6.80;41.50;;;;;;5014278;28;20186;-50
2023/01/30 06:44:39;;;;;;;7.13;6.43;;;6.80;41.70;;;;;;5014316;28;20171;-50
2023/01/30 06:47:05;;;;;;;9.90;7.23;;;6.90;41.70;;;;;;5014401;28;20166;-50
2023/01/30 06:49:31;;;;;;;8.63;6.30;;;6.90;41.90;;;;;;5014304;28;20635;-50
2023/01/30 06:51:56;;;;;;;9.37;6.67;;;6.90;42.20;;;;;;5014107;28;20190;-50
2023/01/30 06:54:22;;;;;;;9.33;6.23;;;6.90;42.20;;;;;;5013907;28;20177;-50
2023/01/30 06:56:48;;;;;;;8.10;5.80;;;6.90;42.70;;;;;;5014147;28;20233;-51
2023/01/30 06:59:14;;;;;;;11.10;7.40;;;6.90;42.80;;;;;;5014063;28;20178;-50
2023/01/30 07:01:40;;;;;;;8.80;6.63;;;6.80;43.40;;;;;;5014015;28;20203;-50
2023/01/30 07:04:05;;;;;;;9.15;6.82;;;6.80;44.00;;;;;;5014125;28;20237;-50
2023/01/30 07:06:31;;;;;;;10.00;7.20;;;6.80;44.00;;;;;;5013750;28;20646;-50
2023/01/30 07:08:57;;;;;;;8.25;5.72;;;6.80;44.90;;;;;;5013947;28;20174;-50
2023/01/30 07:11:27;;;;;;;9.60;5.87;;;6.80;45.30;;;;;;5014107;28;20202;-49
2023/01/30 07:13:52;;;;;;;9.32;6.10;;;6.70;45.80;;;;;;5013921;28;20413;-50
2023/01/30 07:16:18;;;;;;;12.03;6.47;;;6.70;46.30;;;;;;5013569;28;20182;-50
2023/01/30 07:18:44;;;;;;;11.37;8.30;;;6.70;47.00;;;;;;5013849;28;20535;-50
2023/01/30 07:21:10;;;;;;;8.88;6.72;;;6.70;46.50;;;;;;5013260;28;20266;-50
2023/01/30 07:23:35;;;;;;;9.43;6.20;;;6.60;46.80;;;;;;5013714;28;20213;-49
2023/01/30 07:26:05;;;;;;;7.43;6.10;;;6.60;46.80;;;;;;5013622;28;20175;-50
2023/01/30 07:28:31;;;;;;;7.10;4.93;;;6.60;47.20;;;;;;5013585;28;20170;-50
2023/01/30 07:31:00;;;;;;;9.27;7.05;;;6.50;47.60;;;;;;5013558;28;20363;-50
2023/01/30 07:33:26;;;;;;;9.57;6.57;;;6.50;47.80;;;;;;5013682;28;20182;-49
2023/01/30 07:35:52;;;;;;;7.23;5.67;;;6.60;47.30;;;;;;5013318;28;20232;-50
2023/01/30 07:38:18;;;;;;;8.33;5.67;;;6.70;47.10;;;;;;5013383;28;20666;-50
2023/01/30 07:40:43;;;;;;;10.33;5.73;;;6.80;46.70;;;;;;5013411;28;20217;-50
2023/01/30 07:43:11;;;;;;;10.33;6.00;;;6.70;46.80;;;;;;5013267;28;20717;-50
2023/01/30 07:45:39;;;;;;;6.80;4.60;;;6.80;46.80;;;;;;5013038;28;20233;-50
2023/01/30 07:48:06;;;;;;;8.73;4.63;;;6.80;46.30;;;;;;5013123;28;20631;-51
2023/01/30 07:50:32;;;;;;;6.95;5.55;;;6.90;46.10;;;;;;5013407;28;20288;-50
2023/01/30 07:53:01;;;;;;;10.98;5.82;;;7.00;45.60;;;;;;5013381;28;20182;-50
2023/01/30 07:55:26;;;;;;;5.97;4.60;;;7.10;45.30;;;;;;5012938;28;20210;-50
2023/01/30 07:57:53;;;;;;;7.23;5.00;;;7.20;45.10;;;;;;5013129;28;20664;-50
2023/01/30 08:00:19;;;;;;;7.53;4.95;;;7.20;44.70;;;;;;5012886;28;20182;-50
2023/01/30 08:02:44;;;;;;;7.05;4.97;;;7.20;44.70;;;;;;5012920;28;20312;-50
2023/01/30 08:05:10;;;;;;;8.37;5.00;;;7.20;44.90;;;;;;5012716;28;20194;-50
2023/01/30 08:07:36;;;;;;;5.40;4.23;;;7.20;45.10;;;;;;5012827;28;20221;-50
2023/01/30 08:10:02;;;;;;;5.83;4.03;;;7.20;45.00;;;;;;5012987;28;20198;-50
2023/01/30 08:12:28;;;;;;;6.18;4.30;;;7.10;45.50;;;;;;5012767;28;20534;-50
2023/01/30 08:14:54;;;;;;;4.73;3.90;;;7.20;45.50;;;;;;5012478;28;20662;-50
2023/01/30 08:17:20;;;;;;;5.32;4.75;;;7.20;45.40;;;;;;5012614;28;20497;-50
2023/01/30 08:19:46;;;;;;;7.57;6.33;;;7.20;45.60;;;;;;5012599;28;20595;-51
2023/01/30 08:22:12;;;;;;;5.07;3.57;;;7.30;45.60;;;;;;5012610;28;20860;-50
2023/01/30 08:24:38;;;;;;;5.70;4.53;;;7.00;46.30;;;;;;5012419;28;20293;-50
2023/01/30 08:27:03;;;;;;;8.33;5.40;;;7.00;46.70;;;;;;5012894;28;20835;-50
2023/01/30 08:29:29;;;;;;;7.30;4.20;;;7.10;47.20;;;;;;5012476;28;20266;-50
2023/01/30 08:31:59;;;;;;;5.93;4.13;;;7.00;47.00;;;;;;5011815;28;20197;-50
2023/01/30 08:34:25;;;;;;;8.75;4.75;;;7.10;47.20;;;;;;5012289;28;20669;-51
2023/01/30 08:36:51;;;;;;;7.75;4.57;;;7.10;47.00;;;;;;5012387;28;20174;-50
2023/01/30 08:39:17;;;;;;;7.90;5.03;;;7.00;47.30;;;;;;5012409;28;20189;-50
2023/01/30 08:41:43;;;;;;;5.60;4.23;;;7.10;47.10;;;;;;5012246;28;20465;-50
2023/01/30 08:44:10;;;;;;;5.57;4.30;;;7.20;46.90;;;;;;5012642;28;20501;-50
2023/01/30 08:46:36;;;;;;;6.43;4.18;;;7.20;46.60;;;;;;5012014;28;20189;-50
2023/01/30 08:49:01;;;;;;;10.95;4.05;;;7.30;46.70;;;;;;5012271;28;20182;-51
2023/01/30 08:51:28;;;;;;;7.43;3.40;;;7.30;46.70;;;;;;5012097;28;20195;-51
2023/01/30 08:53:54;;;;;;;4.85;4.25;;;7.30;46.90;;;;;;5012393;28;20187;-50
2023/01/30 08:56:19;;;;;;;5.40;3.40;;;7.30;46.70;;;;;;5012092;28;20196;-50
2023/01/30 08:58:45;;;;;;;7.20;2.63;;;7.40;46.30;;;;;;5012275;28;20186;-50
2023/01/30 09:01:11;;;;;;;7.47;4.00;;;7.30;46.80;;;;;;5012002;28;20241;-50
2023/01/30 09:03:37;;;;;;;6.60;4.50;;;7.40;46.50;;;;;;5012116;28;20171;-50
2023/01/30 09:06:04;;;;;;;4.68;3.60;;;7.50;46.10;;;;;;5011869;28;20642;-50
2023/01/30 09:08:29;;;;;;;5.25;3.15;;;7.50;46.20;;;;;;5012213;28;20194;-50
2023/01/30 09:10:59;;;;;;;4.50;2.90;;;7.40;46.30;;;;;;5012198;28;20717;-50
2023/01/30 09:13:26;;;;;;;4.93;2.92;;;7.30;46.30;;;;;;5012091;28;20170;-50
2023/01/30 09:15:52;;;;;;;3.35;2.78;;;7.00;46.80;;;;;;5012106;28;20182;-50
2023/01/30 09:18:17;;;;;;;3.77;2.40;;;6.90;47.40;;;;;;5012204;28;20281;-50
2023/01/30 09:20:43;;;;;;;3.80;2.77;;;7.10;47.20;;;;;;5011962;28;20454;-50
2023/01/30 09:23:09;;;;;;;4.03;3.03;;;7.20;46.90;;;;;;5011942;28;20170;-50
2023/01/30 09:25:35;;;;;;;3.70;2.63;;;7.30;46.60;;;;;;5011848;28;20246;-50
2023/01/30 09:28:00;;;;;;;4.97;2.50;;;7.40;46.30;;;;;;5012000;28;20639;-50
2023/01/30 09:30:26;;;;;;;5.70;2.87;;;7.60;45.80;;;;;;5011796;28;20267;-51
2023/01/30 09:32:52;;;;;;;11.20;3.83;;;7.50;46.70;;;;;;5012014;28;20175;-50
2023/01/30 09:35:17;;;;;;;3.70;2.77;;;7.60;46.30;;;;;;5011763;28;20195;-51
2023/01/30 09:37:52;;;;;;;6.90;3.03;;;7.80;45.90;;;;;;5011846;28;20183;-50
2023/01/30 09:40:25;;;;;;;4.45;2.88;;;7.90;45.20;;;;;;5011610;28;20292;-51
2023/01/30 09:43:09;;;;;;;5.00;2.72;;;7.80;45.40;;;;;;5012579;28;20178;-51
2023/01/30 09:45:35;;;;;;;5.13;3.00;;;7.70;45.00;;;;;;5015488;28;20174;-51
2023/01/30 09:48:23;;;;;;;3.73;2.60;;;7.70;45.70;;;;;;5015614;28;20174;-50
2023/01/30 09:51:19;;;;;;;4.57;3.20;;;7.70;45.50;;;;;;5015379;28;20197;-50
2023/01/30 09:54:24;;;;;;;3.63;3.15;;;7.60;45.60;;;;;;5015509;28;20182;-51
2023/01/30 09:57:16;;;;;;;4.50;3.38;;;7.80;45.40;;;;;;4954715;29;20176;-51
2023/01/30 09:59:55;;;;;;;3.55;3.03;;;7.90;45.00;;;;;;4945150;29;20540;-51
2023/01/30 10:02:33;;;;;;;4.00;2.92;;;8.00;44.80;;;;;;4954603;29;20248;-51
2023/01/30 10:05:01;;;;;;;5.13;3.55;;;8.10;44.30;;;;;;4954263;29;20184;-51
2023/01/30 10:07:52;;;;;;;5.32;2.47;;;8.40;44.60;;;;;;4954382;29;20661;-51
2023/01/30 10:10:27;;;;;;;4.35;2.35;;;9.30;43.50;;;;;;4954498;29;20200;-51
2023/01/30 10:13:47;;;;;;;3.08;2.10;;;9.90;41.40;;;;;;4954449;29;20173;-51
2023/01/30 10:17:00;;;;;;;3.17;2.30;;;9.60;40.60;;;;;;4870754;29;20190;-51
2023/01/30 10:19:40;;;;;;;3.28;2.05;;;9.50;40.00;;;;;;4951265;29;20670;-51
2023/01/30 10:22:17;;;;;;;3.95;2.15;;;9.30;40.80;;;;;;4953956;29;20222;-51
2023/01/30 10:25:21;;;;;;;2.42;1.73;;;9.20;40.80;;;;;;4954060;29;20698;-51
2023/01/30 10:27:58;;;;;;;3.15;2.20;;;9.20;41.60;;;;;;4903363;29;20230;-51
2023/01/30 10:30:24;;;;;;;3.00;1.75;;;8.90;41.00;;;;;;5005638;28;20202;-51
2023/01/30 10:33:16;;;;;;;3.83;2.67;;;8.70;41.20;;;;;;5013340;28;20542;-51
2023/01/30 10:35:42;;;;;;;3.35;2.15;;;8.40;41.90;;;;;;5010848;28;20177;-51
2023/01/30 10:38:30;;;;;;;2.67;1.88;;;8.40;42.60;;;;;;5014502;28;20180;-51
2023/01/30 10:41:17;;;;;;;3.08;2.10;;;8.50;42.10;;;;;;5014240;28;20207;-52
2023/01/30 10:43:56;;;;;;;3.58;1.85;;;8.30;42.20;;;;;;5014800;28;20246;-51
2023/01/30 10:46:43;;;;;;;3.47;2.00;;;8.40;42.10;;;;;;5014291;28;20191;-51
2023/01/30 10:49:16;;;;;;;3.60;2.20;;;8.50;42.50;;;;;;5014460;28;20535;-51
2023/01/30 10:51:47;;;;;;;2.70;1.75;;;8.70;41.50;;;;;;5014191;28;20247;-51
2023/01/30 10:54:22;;;;;;;4.68;2.13;;;8.60;41.10;;;;;;5014145;28;20262;-52
2023/01/30 10:57:16;;;;;;;4.45;1.40;;;8.40;41.70;;;;;;5014133;28;20264;-51
2023/01/30 10:59:49;;;;;;;2.80;1.90;;;8.30;42.80;;;;;;5014095;28;20175;-51
2023/01/30 11:02:21;;;;;;;3.00;1.98;;;8.20;43.10;;;;;;5014051;28;20187;-51
2023/01/30 11:04:59;;;;;;;2.95;2.58;;;8.20;42.90;;;;;;5014077;28;20165;-51
2023/01/30 11:07:28;;;;;;;2.60;2.20;;;8.20;43.40;;;;;;5014218;28;20175;-51
2023/01/30 11:09:57;;;;;;;2.00;1.60;;;8.30;43.30;;;;;;5013896;28;20194;-51
2023/01/30 11:12:23;;;;;;;3.00;1.75;;;8.10;43.20;;;;;;5013882;28;20208;-51
2023/01/30 11:15:02;;;;;;;2.50;1.80;;;8.00;43.60;;;;;;5013668;28;20538;-52
2023/01/30 11:17:42;;;;;;;3.13;1.98;;;9.00;42.70;;;;;;5014074;28;20161;-51
2023/01/30 11:20:23;;;;;;;2.75;1.70;;;9.60;41.10;;;;;;5013672;28;20610;-52
2023/01/30 11:23:22;;;;;;;2.25;1.45;;;9.70;40.00;;;;;;5013754;28;20184;-51
2023/01/30 11:25:56;;;;;;;2.10;1.60;;;9.50;39.70;;;;;;5013479;28;20630;-51
2023/01/30 11:28:25;;;;;;;2.53;1.73;;;9.00;40.40;;;;;;5013680;28;20296;-51
2023/01/30 11:30:59;;;;;;;2.92;2.00;;;8.40;42.10;;;;;;5013719;28;20290;-51
2023/01/30 11:33:39;;;;;;;2.80;1.85;;;8.20;42.70;;;;;;5013417;28;20551;-52
2023/01/30 11:36:22;;;;;;;2.65;1.70;;;8.10;43.20;;;;;;5013567;28;20174;-51
2023/01/30 11:39:21;;;;;;;2.92;2.50;;;8.10;43.30;;;;;;5013554;28;20195;-51
2023/01/30 11:41:56;;;;;;;3.42;2.20;;;8.10;43.40;;;;;;5013148;28;20702;-51
2023/01/30 11:44:41;;;;;;;2.72;1.70;;;8.10;43.60;;;;;;5013150;28;20209;-51
2023/01/30 11:47:15;;;;;;;3.92;2.40;;;8.10;43.80;;;;;;5013326;28;20155;-52
2023/01/30 11:49:47;;;;;;;4.20;2.55;;;8.10;43.90;;;;;;5013290;28;20151;-52
2023/01/30 11:52:17;;;;;;;3.33;2.28;;;8.10;43.70;;;;;;5013199;28;20168;-51
2023/01/30 11:54:44;;;;;;;2.40;2.13;;;7.90;44.20;;;;;;5012965;28;20186;-51
2023/01/30 11:57:14;;;;;;;2.30;1.55;;;7.70;44.60;;;;;;5013326;28;20202;-51
2023/01/30 12:00:00;;;;;;;3.25;2.55;;;7.70;45.00;;;;;;5011862;28;20174;-51
2023/01/30 12:02:31;;;;;;;2.53;1.98;;;7.50;45.30;;;;;;5012891;28;20202;-51
2023/01/30 12:05:04;;;;;;;2.20;1.70;;;7.50;45.50;;;;;;5012985;28;20171;-51
2023/01/30 12:07:32;;;;;;;3.50;2.35;;;7.50;45.90;;;;;;5012041;28;20173;-51
2023/01/30 12:09:59;;;;;;;4.35;2.20;;;7.50;45.80;;;;;;5012807;28;20163;-52
2023/01/30 12:12:35;;;;;;;2.40;1.65;;;7.50;45.90;;;;;;5013126;28;20186;-51
2023/01/30 12:15:22;;;;;;;4.80;2.08;;;7.60;45.30;;;;;;5012587;28;20228;-52
2023/01/30 12:18:11;;;;;;;2.95;2.33;;;7.60;45.40;;;;;;5034845;23;20242;-51
2023/01/30 12:20:59;;;;;;;2.40;1.80;;;7.70;45.40;;;;;;5032483;28;20197;-51
2023/01/30 12:24:06;;;;;;;3.33;2.10;;;7.70;45.30;;;;;;5032468;28;20170;-51
2023/01/30 12:26:50;;;;;;;3.25;2.42;;;7.90;46.10;;;;;;5032357;28;20201;-51
2023/01/30 12:29:34;;;;;;;3.15;2.22;;;8.60;44.20;;;;;;5032392;28;20176;-52
2023/01/30 12:32:24;;;;;;;3.55;2.50;;;9.10;42.80;;;;;;5032199;28;20175;-51
2023/01/30 12:34:50;;;;;;;2.90;2.13;;;9.50;41.90;;;;;;5032343;28;20258;-52
2023/01/30 12:37:44;;;;;;;3.37;1.77;;;9.40;41.50;;;;;;5032066;28;20285;-51
2023/01/30 12:40:38;;;;;;;2.75;1.90;;;9.30;41.00;;;;;;5032181;28;20904;-51
2023/01/30 12:43:10;;;;;;;3.05;2.47;;;9.00;41.70;;;;;;5032104;28;20269;-50
2023/01/30 12:45:47;;;;;;;6.32;2.38;;;8.70;42.70;;;;;;5031727;28;20205;-52
2023/01/30 12:48:30;;;;;;;4.22;2.50;;;9.50;42.40;;;;;;5031870;28;20651;-51
2023/01/30 12:51:43;;;;;;;3.65;2.85;;;9.90;40.60;;;;;;5030786;28;20180;-51
2023/01/30 12:54:28;;;;;;;3.60;2.50;;;10.60;39.60;;;;;;4986094;28;20187;-51
2023/01/30 12:57:36;;;;;;;2.97;2.30;;;10.60;38.80;;;;;;5025524;28;20299;-52
2023/01/30 13:00:23;;;;;;;2.95;2.05;;;10.20;39.10;;;;;;5009665;28;20181;-52
2023/01/30 13:03:22;;;;;;;5.47;2.42;;;9.60;40.00;;;;;;5014954;28;20307;-51
2023/01/30 13:06:09;;;;;;;3.00;2.38;;;9.10;41.20;;;;;;5009528;28;20184;-51
2023/01/30 13:09:04;;;;;;;4.05;2.50;;;8.90;41.70;;;;;;5009811;28;20180;-52
2023/01/30 13:12:02;;;;;;;4.70;2.83;;;8.60;42.60;;;;;;5009656;28;20181;-51
2023/01/30 13:14:43;;;;;;;4.50;2.92;;;9.00;42.90;;;;;;5009179;28;20176;-52
2023/01/30 13:17:52;;;;;;;3.20;2.33;;;10.70;41.40;;;;;;5009458;28;20206;-52
2023/01/30 13:20:34;;;;;;;3.88;2.40;;;12.60;35.60;;;;;;5010660;28;20245;-52
2023/01/30 13:23:37;;;;;;;3.97;2.45;;;13.30;33.00;;;;;;4994124;28;20175;-51
2023/01/30 13:26:10;;;;;;;4.95;2.10;;;13.70;32.50;;;;;;4953830;28;20183;-52